FWV9 EDDM-LOWI
Flight info
| Callsign | FWV9 |
|---|---|
| Flight time | 0h 29m |
| Altitude | 15000 |
| Route | TURBU7Q TURBU Y107 RTT RTT1B |
| Aircraft | A320/M-SDE3FGHIRWY/LB1 |
Departure
| Time | 2026-05-01 12:32 |
|---|---|
| Airport | Munich Airport (EDDM) |
Arrival
| Time | 2026-05-01 13:01 |
|---|---|
| Airport | Innsbruck Airport (LOWI) |
| Time | Latitude | Longitude | Altitude | Speed | Heading |
|---|---|---|---|---|---|
| 2026-05-01 11:51 | 48.34997 | 11.78369 | 1473 ft | 0 kts | 83° |
| 2026-05-01 11:51 | 48.34997 | 11.78365 | 1473 ft | 0 kts | 83° |
| 2026-05-01 12:16 | 48.34996 | 11.78356 | 1485 ft | 4 kts | 83° |
| 2026-05-01 12:16 | 48.34993 | 11.78315 | 1482 ft | 4 kts | 83° |
| 2026-05-01 12:16 | 48.34990 | 11.78275 | 1478 ft | 4 kts | 83° |
| 2026-05-01 12:16 | 48.34987 | 11.78242 | 1476 ft | 4 kts | 68° |
| 2026-05-01 12:17 | 48.34972 | 11.78214 | 1476 ft | 4 kts | 24° |
| 2026-05-01 12:17 | 48.34946 | 11.78205 | 1477 ft | 4 kts | 356° |
| 2026-05-01 12:17 | 48.34923 | 11.78208 | 1472 ft | 1 kts | 353° |
| 2026-05-01 12:22 | 48.34948 | 11.78205 | 1477 ft | 6 kts | 353° |
| 2026-05-01 12:22 | 48.35018 | 11.78192 | 1481 ft | 11 kts | 354° |
| 2026-05-01 12:22 | 48.35114 | 11.78176 | 1480 ft | 15 kts | 353° |
| 2026-05-01 12:23 | 48.35188 | 11.78150 | 1476 ft | 9 kts | 323° |
| 2026-05-01 12:23 | 48.35196 | 11.78069 | 1485 ft | 7 kts | 264° |
| 2026-05-01 12:23 | 48.35191 | 11.77998 | 1485 ft | 6 kts | 264° |
| 2026-05-01 12:23 | 48.35177 | 11.77879 | 1481 ft | 14 kts | 244° |
| 2026-05-01 12:24 | 48.35116 | 11.77858 | 1485 ft | 8 kts | 171° |
| 2026-05-01 12:24 | 48.35053 | 11.77871 | 1476 ft | 12 kts | 173° |
| 2026-05-01 12:24 | 48.34962 | 11.77886 | 1485 ft | 12 kts | 173° |
| 2026-05-01 12:24 | 48.34883 | 11.77890 | 1485 ft | 11 kts | 188° |
| 2026-05-01 12:25 | 48.34815 | 11.77876 | 1485 ft | 9 kts | 181° |
| 2026-05-01 12:25 | 48.34757 | 11.77886 | 1485 ft | 0 kts | 173° |
| 2026-05-01 12:26 | 48.34694 | 11.77895 | 1472 ft | 10 kts | 180° |
| 2026-05-01 12:26 | 48.34658 | 11.77814 | 1485 ft | 11 kts | 264° |
| 2026-05-01 12:27 | 48.34648 | 11.77699 | 1481 ft | 15 kts | 262° |
| 2026-05-01 12:27 | 48.34620 | 11.77340 | 1474 ft | 16 kts | 263° |
| 2026-05-01 12:28 | 48.34592 | 11.76973 | 1481 ft | 17 kts | 264° |
| 2026-05-01 12:28 | 48.34578 | 11.76799 | 1480 ft | 16 kts | 263° |
| 2026-05-01 12:28 | 48.34451 | 11.76709 | 1483 ft | 13 kts | 164° |
| 2026-05-01 12:29 | 48.34388 | 11.76808 | 1479 ft | 14 kts | 114° |
| 2026-05-01 12:29 | 48.34348 | 11.76947 | 1474 ft | 15 kts | 113° |
| 2026-05-01 12:29 | 48.34326 | 11.77023 | 1479 ft | 0 kts | 113° |
| 2026-05-01 12:30 | 48.34322 | 11.77039 | 1478 ft | 8 kts | 113° |
| 2026-05-01 12:30 | 48.34286 | 11.77170 | 1483 ft | 16 kts | 112° |
| 2026-05-01 12:31 | 48.34237 | 11.77263 | 1485 ft | 7 kts | 74° |
| 2026-05-01 12:31 | 48.34240 | 11.77287 | 1478 ft | 0 kts | 84° |
| 2026-05-01 12:31 | 48.34263 | 11.77630 | 1475 ft | 71 kts | 84° |
| 2026-05-01 12:31 | 48.34342 | 11.78691 | 1489 ft | 130 kts | 84° |
| 2026-05-01 12:32 | 48.34433 | 11.80100 | 2090 ft | 133 kts | 83° |
| 2026-05-01 12:32 | 48.34654 | 11.82953 | 3431 ft | 149 kts | 83° |
| 2026-05-01 12:32 | 48.34787 | 11.84644 | 3617 ft | 179 kts | 82° |
| 2026-05-01 12:33 | 48.34945 | 11.86648 | 3854 ft | 208 kts | 82° |
| 2026-05-01 12:33 | 48.35121 | 11.88960 | 4340 ft | 232 kts | 85° |
| 2026-05-01 12:33 | 48.35300 | 11.91374 | 5379 ft | 233 kts | 86° |
| 2026-05-01 12:33 | 48.35436 | 11.93807 | 6321 ft | 236 kts | 95° |
| 2026-05-01 12:34 | 48.34906 | 11.96110 | 7230 ft | 238 kts | 125° |
| 2026-05-01 12:34 | 48.33666 | 11.97828 | 8058 ft | 247 kts | 139° |
| 2026-05-01 12:34 | 48.32300 | 11.99418 | 8961 ft | 250 kts | 139° |
| 2026-05-01 12:34 | 48.30910 | 12.01018 | 9856 ft | 255 kts | 142° |
| 2026-05-01 12:35 | 48.29297 | 12.02246 | 10634 ft | 266 kts | 160° |
| 2026-05-01 12:35 | 48.27399 | 12.02710 | 11091 ft | 290 kts | 177° |
| 2026-05-01 12:35 | 48.25364 | 12.02579 | 11675 ft | 302 kts | 180° |
| 2026-05-01 12:35 | 48.23243 | 12.02437 | 12447 ft | 307 kts | 179° |
| 2026-05-01 12:36 | 48.21086 | 12.02303 | 13216 ft | 313 kts | 179° |
| 2026-05-01 12:36 | 48.18893 | 12.02174 | 13967 ft | 318 kts | 179° |
| 2026-05-01 12:36 | 48.16666 | 12.02046 | 14676 ft | 322 kts | 179° |
| 2026-05-01 12:36 | 48.14412 | 12.01916 | 15173 ft | 326 kts | 179° |
| 2026-05-01 12:37 | 48.12141 | 12.01783 | 15334 ft | 327 kts | 179° |
| 2026-05-01 12:37 | 48.09775 | 12.01648 | 15362 ft | 355 kts | 179° |
| 2026-05-01 12:37 | 48.07216 | 12.01356 | 15358 ft | 383 kts | 186° |
| 2026-05-01 12:37 | 48.04553 | 12.00430 | 15353 ft | 400 kts | 194° |
| 2026-05-01 12:38 | 48.02737 | 11.99653 | 15352 ft | 403 kts | 194° |
| 2026-05-01 12:38 | 48.00034 | 11.98505 | 15345 ft | 404 kts | 194° |
| 2026-05-01 12:38 | 47.97352 | 11.97369 | 15344 ft | 405 kts | 194° |
| 2026-05-01 12:38 | 47.94642 | 11.96227 | 15343 ft | 405 kts | 194° |
| 2026-05-01 12:39 | 47.91912 | 11.95204 | 15344 ft | 404 kts | 187° |
| 2026-05-01 12:39 | 47.89128 | 11.94820 | 15346 ft | 401 kts | 178° |
| 2026-05-01 12:39 | 47.86339 | 11.94781 | 15346 ft | 401 kts | 178° |
| 2026-05-01 12:39 | 47.83546 | 11.94736 | 15339 ft | 401 kts | 178° |
| 2026-05-01 12:40 | 47.80754 | 11.94686 | 15340 ft | 401 kts | 178° |
| 2026-05-01 12:40 | 47.77967 | 11.94632 | 15340 ft | 401 kts | 178° |
| 2026-05-01 12:40 | 47.75175 | 11.94578 | 15332 ft | 401 kts | 178° |
| 2026-05-01 12:40 | 47.72387 | 11.94524 | 15330 ft | 401 kts | 178° |
| 2026-05-01 12:41 | 47.69596 | 11.94473 | 15331 ft | 401 kts | 178° |
| 2026-05-01 12:41 | 47.66808 | 11.94422 | 15332 ft | 401 kts | 178° |
| 2026-05-01 12:41 | 47.64050 | 11.94370 | 15328 ft | 401 kts | 178° |
| 2026-05-01 12:41 | 47.61220 | 11.94316 | 15325 ft | 401 kts | 178° |
| 2026-05-01 12:42 | 47.58467 | 11.94269 | 15328 ft | 401 kts | 178° |
| 2026-05-01 12:42 | 47.55678 | 11.94224 | 15320 ft | 401 kts | 178° |
| 2026-05-01 12:42 | 47.52884 | 11.94175 | 15320 ft | 402 kts | 178° |
| 2026-05-01 12:42 | 47.50095 | 11.93995 | 15307 ft | 402 kts | 187° |
| 2026-05-01 12:43 | 47.47411 | 11.92842 | 15314 ft | 405 kts | 203° |
| 2026-05-01 12:43 | 47.45041 | 11.90583 | 15316 ft | 408 kts | 221° |
| 2026-05-01 12:43 | 47.43216 | 11.87387 | 15311 ft | 408 kts | 239° |
| 2026-05-01 12:43 | 47.42104 | 11.83562 | 15304 ft | 405 kts | 257° |
| 2026-05-01 12:44 | 47.41622 | 11.79476 | 15303 ft | 404 kts | 263° |
| 2026-05-01 12:44 | 47.41210 | 11.75356 | 15297 ft | 404 kts | 263° |
| 2026-05-01 12:44 | 47.40385 | 11.67140 | 15299 ft | 405 kts | 263° |
| 2026-05-01 12:45 | 47.39536 | 11.58921 | 15305 ft | 405 kts | 263° |
| 2026-05-01 12:45 | 47.39107 | 11.54811 | 15307 ft | 405 kts | 263° |
| 2026-05-01 12:45 | 47.38681 | 11.50715 | 15302 ft | 405 kts | 263° |
| 2026-05-01 12:46 | 47.38257 | 11.46607 | 15299 ft | 405 kts | 263° |
| 2026-05-01 12:46 | 47.37833 | 11.42492 | 15297 ft | 405 kts | 263° |
| 2026-05-01 12:46 | 47.37407 | 11.38394 | 15299 ft | 405 kts | 263° |
| 2026-05-01 12:46 | 47.36974 | 11.34287 | 15301 ft | 405 kts | 262° |
| 2026-05-01 12:47 | 47.36538 | 11.30183 | 15297 ft | 404 kts | 263° |
| 2026-05-01 12:47 | 47.36103 | 11.26083 | 15284 ft | 404 kts | 262° |
| 2026-05-01 12:47 | 47.35673 | 11.22042 | 15308 ft | 404 kts | 262° |
| 2026-05-01 12:47 | 47.35235 | 11.17953 | 15308 ft | 404 kts | 262° |
| 2026-05-01 12:48 | 47.34794 | 11.13853 | 15310 ft | 404 kts | 262° |
| 2026-05-01 12:48 | 47.34354 | 11.09770 | 15310 ft | 403 kts | 262° |
| 2026-05-01 12:48 | 47.33914 | 11.05676 | 15309 ft | 404 kts | 262° |
| 2026-05-01 12:48 | 47.33476 | 11.01596 | 15310 ft | 403 kts | 262° |
| 2026-05-01 12:49 | 47.33033 | 10.97513 | 15306 ft | 404 kts | 262° |
| 2026-05-01 12:49 | 47.32587 | 10.93428 | 15307 ft | 403 kts | 262° |
| 2026-05-01 12:49 | 47.32141 | 10.89352 | 15305 ft | 402 kts | 262° |
| 2026-05-01 12:49 | 47.31694 | 10.85290 | 15241 ft | 398 kts | 262° |
| 2026-05-01 12:50 | 47.31256 | 10.81323 | 14918 ft | 389 kts | 262° |
| 2026-05-01 12:50 | 47.30823 | 10.77397 | 14426 ft | 386 kts | 262° |
| 2026-05-01 12:50 | 47.30406 | 10.73627 | 14312 ft | 359 kts | 262° |
| 2026-05-01 12:50 | 47.30022 | 10.70146 | 14196 ft | 342 kts | 262° |
| 2026-05-01 12:51 | 47.29643 | 10.66732 | 14045 ft | 334 kts | 262° |
| 2026-05-01 12:51 | 47.29263 | 10.63393 | 13844 ft | 328 kts | 260° |
| 2026-05-01 12:51 | 47.26656 | 10.58256 | 13292 ft | 315 kts | 200° |
| 2026-05-01 12:52 | 47.24575 | 10.57821 | 13290 ft | 295 kts | 168° |
| 2026-05-01 12:52 | 47.21821 | 10.61248 | 13290 ft | 255 kts | 99° |
| 2026-05-01 12:52 | 47.21963 | 10.63729 | 13292 ft | 241 kts | 65° |
| 2026-05-01 12:53 | 47.23586 | 10.68110 | 12797 ft | 250 kts | 60° |
| 2026-05-01 12:53 | 47.24431 | 10.70339 | 12420 ft | 255 kts | 61° |
| 2026-05-01 12:53 | 47.25299 | 10.72628 | 12047 ft | 258 kts | 61° |
| 2026-05-01 12:54 | 47.26178 | 10.74941 | 11676 ft | 260 kts | 61° |
| 2026-05-01 12:54 | 47.27969 | 10.79652 | 10913 ft | 266 kts | 61° |
| 2026-05-01 12:54 | 47.28881 | 10.82053 | 10472 ft | 272 kts | 61° |
| 2026-05-01 12:55 | 47.30102 | 10.87246 | 9431 ft | 268 kts | 86° |
| 2026-05-01 12:55 | 47.30236 | 10.89981 | 9004 ft | 268 kts | 86° |
| 2026-05-01 12:55 | 47.30365 | 10.92698 | 8800 ft | 257 kts | 86° |
| 2026-05-01 12:56 | 47.30486 | 10.95261 | 8393 ft | 249 kts | 86° |
| 2026-05-01 12:56 | 47.30604 | 10.97797 | 7938 ft | 246 kts | 86° |
| 2026-05-01 12:56 | 47.30722 | 11.00275 | 7484 ft | 245 kts | 85° |
| 2026-05-01 12:56 | 47.30843 | 11.02768 | 7049 ft | 241 kts | 85° |
| 2026-05-01 12:57 | 47.30961 | 11.05213 | 6652 ft | 237 kts | 86° |
| 2026-05-01 12:57 | 47.30227 | 11.09818 | 5902 ft | 231 kts | 113° |
| 2026-05-01 12:57 | 47.29540 | 11.11955 | 5510 ft | 229 kts | 115° |
| 2026-05-01 12:58 | 47.28844 | 11.14041 | 5142 ft | 226 kts | 115° |
| 2026-05-01 12:58 | 47.28150 | 11.16102 | 4790 ft | 223 kts | 116° |
| 2026-05-01 12:58 | 47.27462 | 11.18149 | 4440 ft | 221 kts | 114° |
| 2026-05-01 12:59 | 47.26163 | 11.22041 | 3798 ft | 198 kts | 114° |
| 2026-05-01 12:59 | 47.25568 | 11.23828 | 3482 ft | 189 kts | 114° |
| 2026-05-01 12:59 | 47.25221 | 11.27260 | 2932 ft | 156 kts | 79° |
| 2026-05-01 13:00 | 47.25579 | 11.30231 | 2414 ft | 141 kts | 83° |
| 2026-05-01 13:00 | 47.25737 | 11.31634 | 2204 ft | 138 kts | 83° |
| 2026-05-01 13:01 | 47.26009 | 11.34285 | 1897 ft | 101 kts | 81° |
| 2026-05-01 13:01 | 47.26089 | 11.35045 | 1904 ft | 40 kts | 81° |
| 2026-05-01 13:01 | 47.26033 | 11.35266 | 1900 ft | 10 kts | 169° |
| 2026-05-01 13:02 | 47.25963 | 11.35284 | 1895 ft | 11 kts | 171° |
| 2026-05-01 13:07 | 47.25819 | 11.34806 | 1900 ft | 3 kts | 174° |
| 2026-05-01 13:07 | 47.25805 | 11.34810 | 1899 ft | 1 kts | 170° |
| 2026-05-01 13:07 | 47.25798 | 11.34812 | 1901 ft | 0 kts | 170° |
| 2026-05-01 13:08 | 47.25796 | 11.34812 | 1902 ft | 1 kts | 171° |
| 2026-05-01 13:08 | 47.25795 | 11.34812 | 1902 ft | 0 kts | 171° |